sensor_id;sensor_type;location;lat;lon;timestamp;temperature;humidity
53802;DHT22;39709;53.334;6.534;2023-02-26T00:01:20;1.90;99.90
53802;DHT22;39709;53.334;6.534;2023-02-26T00:03:54;2.00;99.90
53802;DHT22;39709;53.334;6.534;2023-02-26T00:06:21;2.00;99.90
53802;DHT22;39709;53.334;6.534;2023-02-26T00:08:47;1.90;99.90
53802;DHT22;39709;53.334;6.534;2023-02-26T00:11:13;1.90;99.90
53802;DHT22;39709;53.334;6.534;2023-02-26T00:13:41;1.80;99.90
53802;DHT22;39709;53.334;6.534;2023-02-26T00:16:34;1.80;99.90
53802;DHT22;39709;53.334;6.534;2023-02-26T00:19:01;1.90;99.90
53802;DHT22;39709;53.334;6.534;2023-02-26T00:21:28;1.90;99.90
53802;DHT22;39709;53.334;6.534;2023-02-26T00:23:55;2.00;99.90
53802;DHT22;39709;53.334;6.534;2023-02-26T00:26:22;2.00;99.90
53802;DHT22;39709;53.334;6.534;2023-02-26T00:28:48;1.90;99.90
53802;DHT22;39709;53.334;6.534;2023-02-26T00:31:15;1.90;99.90
53802;DHT22;39709;53.334;6.534;2023-02-26T00:33:43;1.80;99.90
53802;DHT22;39709;53.334;6.534;2023-02-26T00:41:28;1.80;99.90
53802;DHT22;39709;53.334;6.534;2023-02-26T00:43:53;1.90;99.90
53802;DHT22;39709;53.334;6.534;2023-02-26T00:49:22;1.60;99.90
53802;DHT22;39709;53.334;6.534;2023-02-26T00:51:57;1.60;99.90
53802;DHT22;39709;53.334;6.534;2023-02-26T00:54:28;1.50;99.90
53802;DHT22;39709;53.334;6.534;2023-02-26T00:56:55;1.50;99.90
53802;DHT22;39709;53.334;6.534;2023-02-26T00:59:22;1.40;99.90
53802;DHT22;39709;53.334;6.534;2023-02-26T01:01:48;1.40;99.90
53802;DHT22;39709;53.334;6.534;2023-02-26T01:04:16;1.60;99.90
53802;DHT22;39709;53.334;6.534;2023-02-26T01:06:45;1.60;99.90
53802;DHT22;39709;53.334;6.534;2023-02-26T01:11:43;1.70;99.90
53802;DHT22;39709;53.334;6.534;2023-02-26T01:14:09;1.40;99.90
53802;DHT22;39709;53.334;6.534;2023-02-26T01:17:30;1.30;99.90
53802;DHT22;39709;53.334;6.534;2023-02-26T01:22:17;1.30;99.90
53802;DHT22;39709;53.334;6.534;2023-02-26T01:24:47;1.20;99.90
53802;DHT22;39709;53.334;6.534;2023-02-26T01:27:13;1.30;99.90
53802;DHT22;39709;53.334;6.534;2023-02-26T01:29:39;1.20;99.90
53802;DHT22;39709;53.334;6.534;2023-02-26T01:32:11;1.20;99.90
53802;DHT22;39709;53.334;6.534;2023-02-26T01:42:39;1.20;99.90
53802;DHT22;39709;53.334;6.534;2023-02-26T01:45:21;1.10;99.90
53802;DHT22;39709;53.334;6.534;2023-02-26T01:47:58;1.20;99.90
53802;DHT22;39709;53.334;6.534;2023-02-26T01:50:25;1.10;99.90
53802;DHT22;39709;53.334;6.534;2023-02-26T01:55:42;1.10;99.90
53802;DHT22;39709;53.334;6.534;2023-02-26T01:58:08;0.90;99.90
53802;DHT22;39709;53.334;6.534;2023-02-26T02:00:34;0.90;99.90
53802;DHT22;39709;53.334;6.534;2023-02-26T02:03:00;0.80;99.90
53802;DHT22;39709;53.334;6.534;2023-02-26T02:05:28;0.80;99.90
53802;DHT22;39709;53.334;6.534;2023-02-26T02:07:56;0.90;99.90
53802;DHT22;39709;53.334;6.534;2023-02-26T02:10:22;0.90;99.90
53802;DHT22;39709;53.334;6.534;2023-02-26T02:13:04;0.90;99.90
53802;DHT22;39709;53.334;6.534;2023-02-26T02:15:49;0.90;99.90
53802;DHT22;39709;53.334;6.534;2023-02-26T02:23:42;0.60;99.90
53802;DHT22;39709;53.334;6.534;2023-02-26T02:26:18;0.60;99.90
53802;DHT22;39709;53.334;6.534;2023-02-26T02:29:30;0.80;99.90
53802;DHT22;39709;53.334;6.534;2023-02-26T02:32:02;0.50;99.90
53802;DHT22;39709;53.334;6.534;2023-02-26T02:37:12;0.50;99.90
53802;DHT22;39709;53.334;6.534;2023-02-26T02:39:57;0.40;99.90
53802;DHT22;39709;53.334;6.534;2023-02-26T02:42:33;0.50;99.90
53802;DHT22;39709;53.334;6.534;2023-02-26T02:45:10;0.40;99.90
53802;DHT22;39709;53.334;6.534;2023-02-26T02:47:40;0.40;99.90
53802;DHT22;39709;53.334;6.534;2023-02-26T02:50:23;0.50;99.90
53802;DHT22;39709;53.334;6.534;2023-02-26T02:53:00;0.40;99.90
53802;DHT22;39709;53.334;6.534;2023-02-26T02:55:31;0.50;99.90
53802;DHT22;39709;53.334;6.534;2023-02-26T02:58:05;0.40;99.90
53802;DHT22;39709;53.334;6.534;2023-02-26T03:00:38;0.40;99.90
53802;DHT22;39709;53.334;6.534;2023-02-26T03:03:10;0.40;99.90
53802;DHT22;39709;53.334;6.534;2023-02-26T03:05:39;0.40;99.90
53802;DHT22;39709;53.334;6.534;2023-02-26T03:08:09;0.40;99.90
53802;DHT22;39709;53.334;6.534;2023-02-26T03:10:35;0.40;99.90
53802;DHT22;39709;53.334;6.534;2023-02-26T03:13:01;0.50;99.90
53802;DHT22;39709;53.334;6.534;2023-02-26T03:20:34;0.40;99.90
53802;DHT22;39709;53.334;6.534;2023-02-26T03:23:08;0.50;99.90
53802;DHT22;39709;53.334;6.534;2023-02-26T03:25:44;0.60;99.90
53802;DHT22;39709;53.334;6.534;2023-02-26T03:28:35;0.60;99.90
53802;DHT22;39709;53.334;6.534;2023-02-26T03:33:53;0.70;99.90
53802;DHT22;39709;53.334;6.534;2023-02-26T03:39:04;0.80;99.90
53802;DHT22;39709;53.334;6.534;2023-02-26T03:41:46;0.70;99.90
53802;DHT22;39709;53.334;6.534;2023-02-26T03:47:18;0.70;99.90
53802;DHT22;39709;53.334;6.534;2023-02-26T03:49:49;0.80;99.90
53802;DHT22;39709;53.334;6.534;2023-02-26T03:52:18;1.00;99.90
53802;DHT22;39709;53.334;6.534;2023-02-26T03:54:50;1.10;99.90
53802;DHT22;39709;53.334;6.534;2023-02-26T03:57:19;1.00;99.90
53802;DHT22;39709;53.334;6.534;2023-02-26T03:59:44;1.00;99.90
53802;DHT22;39709;53.334;6.534;2023-02-26T04:02:18;1.00;99.90
53802;DHT22;39709;53.334;6.534;2023-02-26T04:04:55;0.90;99.90
53802;DHT22;39709;53.334;6.534;2023-02-26T04:07:21;0.80;99.90
53802;DHT22;39709;53.334;6.534;2023-02-26T04:09:49;0.80;99.90
53802;DHT22;39709;53.334;6.534;2023-02-26T04:12:21;0.70;99.90
53802;DHT22;39709;53.334;6.534;2023-02-26T04:14:47;0.70;99.90
53802;DHT22;39709;53.334;6.534;2023-02-26T04:17:12;0.80;99.90
53802;DHT22;39709;53.334;6.534;2023-02-26T04:19:38;1.00;99.90
53802;DHT22;39709;53.334;6.534;2023-02-26T04:22:04;0.80;99.90
53802;DHT22;39709;53.334;6.534;2023-02-26T04:24:29;0.90;99.90
53802;DHT22;39709;53.334;6.534;2023-02-26T04:26:55;0.80;99.90
53802;DHT22;39709;53.334;6.534;2023-02-26T04:29:21;0.80;99.90
53802;DHT22;39709;53.334;6.534;2023-02-26T04:31:46;0.80;99.90
53802;DHT22;39709;53.334;6.534;2023-02-26T04:34:12;0.60;99.90
53802;DHT22;39709;53.334;6.534;2023-02-26T04:36:38;0.70;99.90
53802;DHT22;39709;53.334;6.534;2023-02-26T04:39:03;0.50;99.90
53802;DHT22;39709;53.334;6.534;2023-02-26T04:41:29;1.50;99.90
53802;DHT22;39709;53.334;6.534;2023-02-26T04:43:55;0.50;99.90
53802;DHT22;39709;53.334;6.534;2023-02-26T04:46:21;0.50;99.90
53802;DHT22;39709;53.334;6.534;2023-02-26T04:48:47;0.50;99.90
53802;DHT22;39709;53.334;6.534;2023-02-26T04:51:12;0.50;99.90
53802;DHT22;39709;53.334;6.534;2023-02-26T04:53:38;0.50;99.90
53802;DHT22;39709;53.334;6.534;2023-02-26T04:56:04;0.60;99.90
53802;DHT22;39709;53.334;6.534;2023-02-26T04:58:29;0.60;99.90
53802;DHT22;39709;53.334;6.534;2023-02-26T05:00:56;0.60;99.90
53802;DHT22;39709;53.334;6.534;2023-02-26T05:03:22;0.60;99.90
53802;DHT22;39709;53.334;6.534;2023-02-26T05:05:48;0.50;99.90
53802;DHT22;39709;53.334;6.534;2023-02-26T05:08:14;0.60;99.90
53802;DHT22;39709;53.334;6.534;2023-02-26T05:10:39;0.40;99.90
53802;DHT22;39709;53.334;6.534;2023-02-26T05:13:05;0.30;99.90
53802;DHT22;39709;53.334;6.534;2023-02-26T05:15:31;0.30;99.90
53802;DHT22;39709;53.334;6.534;2023-02-26T05:17:57;0.20;99.90
53802;DHT22;39709;53.334;6.534;2023-02-26T05:20:23;0.20;99.90
53802;DHT22;39709;53.334;6.534;2023-02-26T05:22:48;0.10;99.90
53802;DHT22;39709;53.334;6.534;2023-02-26T05:25:14;0.10;99.90
53802;DHT22;39709;53.334;6.534;2023-02-26T05:27:41;0.10;99.90
53802;DHT22;39709;53.334;6.534;2023-02-26T05:30:08;0.10;99.90
53802;DHT22;39709;53.334;6.534;2023-02-26T05:32:34;0.20;99.90
53802;DHT22;39709;53.334;6.534;2023-02-26T05:35:00;0.10;99.90
53802;DHT22;39709;53.334;6.534;2023-02-26T05:37:26;0.10;99.90
53802;DHT22;39709;53.334;6.534;2023-02-26T05:39:52;0.30;99.90
53802;DHT22;39709;53.334;6.534;2023-02-26T05:42:18;0.10;99.90
53802;DHT22;39709;53.334;6.534;2023-02-26T05:44:43;0.10;99.90
53802;DHT22;39709;53.334;6.534;2023-02-26T05:47:09;0.70;99.90
53802;DHT22;39709;53.334;6.534;2023-02-26T05:49:35;0.20;99.90
53802;DHT22;39709;53.334;6.534;2023-02-26T05:52:00;0.10;99.90
53802;DHT22;39709;53.334;6.534;2023-02-26T05:54:26;0.20;99.90
53802;DHT22;39709;53.334;6.534;2023-02-26T05:56:52;0.00;99.90
53802;DHT22;39709;53.334;6.534;2023-02-26T05:59:18;0.00;99.90
53802;DHT22;39709;53.334;6.534;2023-02-26T06:01:43;0.00;99.90
53802;DHT22;39709;53.334;6.534;2023-02-26T06:04:09;0.00;99.90
53802;DHT22;39709;53.334;6.534;2023-02-26T06:06:35;0.00;99.90
53802;DHT22;39709;53.334;6.534;2023-02-26T06:09:00;0.00;99.90
53802;DHT22;39709;53.334;6.534;2023-02-26T06:11:28;0.00;99.90
53802;DHT22;39709;53.334;6.534;2023-02-26T06:13:54;0.00;99.90
53802;DHT22;39709;53.334;6.534;2023-02-26T06:16:20;-0.10;99.90
53802;DHT22;39709;53.334;6.534;2023-02-26T06:18:46;-0.10;99.90
53802;DHT22;39709;53.334;6.534;2023-02-26T06:21:13;0.00;99.90
53802;DHT22;39709;53.334;6.534;2023-02-26T06:23:39;0.00;99.90
53802;DHT22;39709;53.334;6.534;2023-02-26T06:26:04;0.00;99.90
53802;DHT22;39709;53.334;6.534;2023-02-26T06:28:31;0.00;99.90
53802;DHT22;39709;53.334;6.534;2023-02-26T06:30:57;-0.10;99.90
53802;DHT22;39709;53.334;6.534;2023-02-26T06:33:23;-0.10;99.90
53802;DHT22;39709;53.334;6.534;2023-02-26T06:35:49;-0.10;99.90
53802;DHT22;39709;53.334;6.534;2023-02-26T06:38:15;1.30;99.90
53802;DHT22;39709;53.334;6.534;2023-02-26T06:40:41;0.00;99.90
53802;DHT22;39709;53.334;6.534;2023-02-26T06:43:07;-0.10;99.90
53802;DHT22;39709;53.334;6.534;2023-02-26T06:45:32;0.40;99.90
53802;DHT22;39709;53.334;6.534;2023-02-26T06:47:58;-0.10;99.90
53802;DHT22;39709;53.334;6.534;2023-02-26T06:50:24;-0.20;99.90
53802;DHT22;39709;53.334;6.534;2023-02-26T06:52:49;-0.30;99.90
53802;DHT22;39709;53.334;6.534;2023-02-26T06:55:16;-0.20;99.90
53802;DHT22;39709;53.334;6.534;2023-02-26T06:57:42;-0.30;99.90
53802;DHT22;39709;53.334;6.534;2023-02-26T07:00:08;-0.30;99.90
53802;DHT22;39709;53.334;6.534;2023-02-26T07:02:35;-0.40;99.90
53802;DHT22;39709;53.334;6.534;2023-02-26T07:05:00;-0.50;99.90
53802;DHT22;39709;53.334;6.534;2023-02-26T07:07:27;-0.40;99.90
53802;DHT22;39709;53.334;6.534;2023-02-26T07:09:52;-0.50;99.90
53802;DHT22;39709;53.334;6.534;2023-02-26T07:12:18;-0.20;99.90
53802;DHT22;39709;53.334;6.534;2023-02-26T07:14:44;-0.20;99.90
53802;DHT22;39709;53.334;6.534;2023-02-26T07:17:11;-0.30;99.90
53802;DHT22;39709;53.334;6.534;2023-02-26T07:19:48;0.00;99.90
53802;DHT22;39709;53.334;6.534;2023-02-26T07:22:15;-0.10;99.90
53802;DHT22;39709;53.334;6.534;2023-02-26T07:24:41;-0.10;99.90
53802;DHT22;39709;53.334;6.534;2023-02-26T07:27:08;0.20;99.90
53802;DHT22;39709;53.334;6.534;2023-02-26T07:29:34;0.00;99.90
53802;DHT22;39709;53.334;6.534;2023-02-26T07:31:59;0.10;99.90
53802;DHT22;39709;53.334;6.534;2023-02-26T07:34:25;0.20;99.90
53802;DHT22;39709;53.334;6.534;2023-02-26T07:36:51;0.30;99.90
53802;DHT22;39709;53.334;6.534;2023-02-26T07:39:16;0.40;99.90
53802;DHT22;39709;53.334;6.534;2023-02-26T07:41:42;0.40;99.90
53802;DHT22;39709;53.334;6.534;2023-02-26T07:44:08;0.90;99.90
53802;DHT22;39709;53.334;6.534;2023-02-26T07:46:33;0.70;99.90
53802;DHT22;39709;53.334;6.534;2023-02-26T07:48:59;1.00;99.90
53802;DHT22;39709;53.334;6.534;2023-02-26T07:51:25;1.20;99.90
53802;DHT22;39709;53.334;6.534;2023-02-26T07:53:50;0.90;99.90
53802;DHT22;39709;53.334;6.534;2023-02-26T07:56:16;1.00;99.90
53802;DHT22;39709;53.334;6.534;2023-02-26T07:58:42;1.10;99.90
53802;DHT22;39709;53.334;6.534;2023-02-26T08:01:07;1.20;99.90
53802;DHT22;39709;53.334;6.534;2023-02-26T08:03:33;1.00;99.90
53802;DHT22;39709;53.334;6.534;2023-02-26T08:05:59;0.90;99.90
53802;DHT22;39709;53.334;6.534;2023-02-26T08:08:25;0.90;99.90
53802;DHT22;39709;53.334;6.534;2023-02-26T08:10:51;0.90;99.90
53802;DHT22;39709;53.334;6.534;2023-02-26T08:13:17;1.10;99.90
53802;DHT22;39709;53.334;6.534;2023-02-26T08:15:43;1.10;99.90
53802;DHT22;39709;53.334;6.534;2023-02-26T08:18:09;1.30;99.90
53802;DHT22;39709;53.334;6.534;2023-02-26T08:20:35;1.80;99.90
53802;DHT22;39709;53.334;6.534;2023-02-26T08:23:01;1.90;99.90
53802;DHT22;39709;53.334;6.534;2023-02-26T08:25:27;2.10;99.90
53802;DHT22;39709;53.334;6.534;2023-02-26T08:27:52;2.20;99.90
53802;DHT22;39709;53.334;6.534;2023-02-26T08:30:18;2.20;99.90
53802;DHT22;39709;53.334;6.534;2023-02-26T08:32:44;2.30;99.90
53802;DHT22;39709;53.334;6.534;2023-02-26T08:35:11;2.40;99.90
53802;DHT22;39709;53.334;6.534;2023-02-26T08:37:37;2.40;99.90
53802;DHT22;39709;53.334;6.534;2023-02-26T08:40:05;2.60;1.00
53802;DHT22;39709;53.334;6.534;2023-02-26T08:42:31;2.60;1.00
53802;DHT22;39709;53.334;6.534;2023-02-26T08:44:57;2.60;99.90
53802;DHT22;39709;53.334;6.534;2023-02-26T08:47:22;2.70;99.90
53802;DHT22;39709;53.334;6.534;2023-02-26T08:49:48;3.00;1.00
53802;DHT22;39709;53.334;6.534;2023-02-26T08:52:14;2.80;99.90
53802;DHT22;39709;53.334;6.534;2023-02-26T08:54:39;3.00;1.00
53802;DHT22;39709;53.334;6.534;2023-02-26T08:57:05;3.00;99.90
53802;DHT22;39709;53.334;6.534;2023-02-26T08:59:31;3.00;99.90
53802;DHT22;39709;53.334;6.534;2023-02-26T09:01:57;3.30;1.00
53802;DHT22;39709;53.334;6.534;2023-02-26T09:04:22;3.30;1.00
53802;DHT22;39709;53.334;6.534;2023-02-26T09:06:48;3.20;99.90
53802;DHT22;39709;53.334;6.534;2023-02-26T09:09:14;3.50;1.00
53802;DHT22;39709;53.334;6.534;2023-02-26T09:11:39;3.50;1.00
53802;DHT22;39709;53.334;6.534;2023-02-26T09:14:05;3.70;1.00
53802;DHT22;39709;53.334;6.534;2023-02-26T09:16:31;3.90;1.00
53802;DHT22;39709;53.334;6.534;2023-02-26T09:18:59;3.80;1.00
53802;DHT22;39709;53.334;6.534;2023-02-26T09:21:25;3.80;1.00
53802;DHT22;39709;53.334;6.534;2023-02-26T09:23:51;3.80;1.00
53802;DHT22;39709;53.334;6.534;2023-02-26T09:26:16;3.70;99.90
53802;DHT22;39709;53.334;6.534;2023-02-26T09:28:42;4.20;1.00
53802;DHT22;39709;53.334;6.534;2023-02-26T09:31:08;4.40;1.00
53802;DHT22;39709;53.334;6.534;2023-02-26T09:33:34;4.30;99.90
53802;DHT22;39709;53.334;6.534;2023-02-26T09:36:01;4.50;1.00
53802;DHT22;39709;53.334;6.534;2023-02-26T09:38:27;4.40;1.00
53802;DHT22;39709;53.334;6.534;2023-02-26T09:41:02;4.30;1.00
53802;DHT22;39709;53.334;6.534;2023-02-26T09:52:17;4.40;1.00
53802;DHT22;39709;53.334;6.534;2023-02-26T09:54:55;4.50;1.00
53802;DHT22;39709;53.334;6.534;2023-02-26T09:57:32;4.40;99.90
53802;DHT22;39709;53.334;6.534;2023-02-26T10:00:00;4.80;1.00
53802;DHT22;39709;53.334;6.534;2023-02-26T10:02:34;4.80;1.00
53802;DHT22;39709;53.334;6.534;2023-02-26T10:05:17;5.00;33.80
53802;DHT22;39709;53.334;6.534;2023-02-26T10:08:06;5.00;47.50
53802;DHT22;39709;53.334;6.534;2023-02-26T10:11:01;5.20;62.40
53802;DHT22;39709;53.334;6.534;2023-02-26T10:16:17;4.40;99.90
53802;DHT22;39709;53.334;6.534;2023-02-26T10:18:48;4.40;99.90
53802;DHT22;39709;53.334;6.534;2023-02-26T10:21:22;4.40;99.90
53802;DHT22;39709;53.334;6.534;2023-02-26T10:23:55;4.20;99.90
53802;DHT22;39709;53.334;6.534;2023-02-26T10:32:07;4.40;99.90
53802;DHT22;39709;53.334;6.534;2023-02-26T10:35:04;4.00;99.90
53802;DHT22;39709;53.334;6.534;2023-02-26T10:37:56;3.80;99.90
53802;DHT22;39709;53.334;6.534;2023-02-26T10:43:02;3.90;99.90
53802;DHT22;39709;53.334;6.534;2023-02-26T10:46:05;4.20;99.90
53802;DHT22;39709;53.334;6.534;2023-02-26T10:49:00;4.60;1.00
53802;DHT22;39709;53.334;6.534;2023-02-26T10:51:35;4.60;99.90
53802;DHT22;39709;53.334;6.534;2023-02-26T10:54:23;4.80;99.90
53802;DHT22;39709;53.334;6.534;2023-02-26T10:56:51;4.70;99.90
53802;DHT22;39709;53.334;6.534;2023-02-26T10:59:16;5.10;99.90
53802;DHT22;39709;53.334;6.534;2023-02-26T11:01:42;5.00;99.90
53802;DHT22;39709;53.334;6.534;2023-02-26T11:04:12;5.10;99.90
53802;DHT22;39709;53.334;6.534;2023-02-26T11:06:44;5.50;1.00
53802;DHT22;39709;53.334;6.534;2023-02-26T11:09:32;5.50;1.00
53802;DHT22;39709;53.334;6.534;2023-02-26T11:14:38;5.20;1.00
53802;DHT22;39709;53.334;6.534;2023-02-26T11:17:10;5.30;1.00
53802;DHT22;39709;53.334;6.534;2023-02-26T11:19:43;5.60;1.00
53802;DHT22;39709;53.334;6.534;2023-02-26T11:22:14;5.60;1.00
53802;DHT22;39709;53.334;6.534;2023-02-26T11:24:48;5.50;1.00
53802;DHT22;39709;53.334;6.534;2023-02-26T11:27:18;5.30;1.00
53802;DHT22;39709;53.334;6.534;2023-02-26T11:29:53;4.90;99.90
53802;DHT22;39709;53.334;6.534;2023-02-26T11:32:32;4.80;99.90
53802;DHT22;39709;53.334;6.534;2023-02-26T11:34:58;4.60;99.90
53802;DHT22;39709;53.334;6.534;2023-02-26T11:37:30;4.90;99.90
53802;DHT22;39709;53.334;6.534;2023-02-26T11:40:22;4.90;99.90
53802;DHT22;39709;53.334;6.534;2023-02-26T11:42:58;4.80;99.90
53802;DHT22;39709;53.334;6.534;2023-02-26T11:45:24;4.90;1.00
53802;DHT22;39709;53.334;6.534;2023-02-26T11:48:06;5.10;1.00
53802;DHT22;39709;53.334;6.534;2023-02-26T11:50:44;4.90;1.00
53802;DHT22;39709;53.334;6.534;2023-02-26T11:54:16;5.10;1.00
53802;DHT22;39709;53.334;6.534;2023-02-26T11:56:21;5.10;1.00
53802;DHT22;39709;53.334;6.534;2023-02-26T11:58:51;5.60;1.00
53802;DHT22;39709;53.334;6.534;2023-02-26T12:01:17;5.70;1.00
53802;DHT22;39709;53.334;6.534;2023-02-26T12:03:46;5.80;1.00
53802;DHT22;39709;53.334;6.534;2023-02-26T12:06:17;6.00;1.00
53802;DHT22;39709;53.334;6.534;2023-02-26T12:08:44;6.20;1.00
53802;DHT22;39709;53.334;6.534;2023-02-26T12:19:29;5.40;99.90
53802;DHT22;39709;53.334;6.534;2023-02-26T12:25:04;5.80;99.90
53802;DHT22;39709;53.334;6.534;2023-02-26T12:33:22;5.70;99.90
53802;DHT22;39709;53.334;6.534;2023-02-26T12:38:58;5.20;99.90
53802;DHT22;39709;53.334;6.534;2023-02-26T12:44:02;5.00;99.90
53802;DHT22;39709;53.334;6.534;2023-02-26T12:52:46;5.40;99.90
53802;DHT22;39709;53.334;6.534;2023-02-26T13:13:25;5.50;99.90
53802;DHT22;39709;53.334;6.534;2023-02-26T13:18:47;4.80;99.90
53802;DHT22;39709;53.334;6.534;2023-02-26T13:21:28;5.10;99.90
53802;DHT22;39709;53.334;6.534;2023-02-26T13:26:32;5.30;99.90
53802;DHT22;39709;53.334;6.534;2023-02-26T13:29:17;5.60;1.00
53802;DHT22;39709;53.334;6.534;2023-02-26T13:32:04;5.10;99.90
53802;DHT22;39709;53.334;6.534;2023-02-26T13:37:00;4.80;99.90
53802;DHT22;39709;53.334;6.534;2023-02-26T13:45:33;5.10;99.90
53802;DHT22;39709;53.334;6.534;2023-02-26T13:50:44;4.80;99.90
53802;DHT22;39709;53.334;6.534;2023-02-26T13:55:56;5.20;99.90
53802;DHT22;39709;53.334;6.534;2023-02-26T13:58:38;4.90;99.90
53802;DHT22;39709;53.334;6.534;2023-02-26T14:01:14;4.70;99.90
53802;DHT22;39709;53.334;6.534;2023-02-26T14:03:51;4.80;99.90
53802;DHT22;39709;53.334;6.534;2023-02-26T14:14:42;4.80;99.90
53802;DHT22;39709;53.334;6.534;2023-02-26T14:25:17;4.70;99.90
53802;DHT22;39709;53.334;6.534;2023-02-26T14:27:46;4.70;99.90
53802;DHT22;39709;53.334;6.534;2023-02-26T14:30:18;4.50;99.90
53802;DHT22;39709;53.334;6.534;2023-02-26T14:35:33;4.60;99.90
53802;DHT22;39709;53.334;6.534;2023-02-26T14:38:20;4.70;99.90
53802;DHT22;39709;53.334;6.534;2023-02-26T14:43:30;4.70;99.90
53802;DHT22;39709;53.334;6.534;2023-02-26T14:46:00;4.40;99.90
53802;DHT22;39709;53.334;6.534;2023-02-26T14:48:26;4.40;99.90
53802;DHT22;39709;53.334;6.534;2023-02-26T14:51:22;4.50;99.90
53802;DHT22;39709;53.334;6.534;2023-02-26T15:09:27;4.90;99.90
53802;DHT22;39709;53.334;6.534;2023-02-26T15:12:09;4.90;99.90
53802;DHT22;39709;53.334;6.534;2023-02-26T15:15:23;5.00;99.90
53802;DHT22;39709;53.334;6.534;2023-02-26T15:24:04;4.40;99.90
53802;DHT22;39709;53.334;6.534;2023-02-26T15:26:36;4.50;99.90
53802;DHT22;39709;53.334;6.534;2023-02-26T15:29:07;4.50;99.90
53802;DHT22;39709;53.334;6.534;2023-02-26T15:31:43;4.60;99.90
53802;DHT22;39709;53.334;6.534;2023-02-26T15:34:13;4.70;99.90
53802;DHT22;39709;53.334;6.534;2023-02-26T15:36:43;4.80;99.90
53802;DHT22;39709;53.334;6.534;2023-02-26T15:39:09;4.70;99.90
53802;DHT22;39709;53.334;6.534;2023-02-26T15:41:35;4.80;99.90
53802;DHT22;39709;53.334;6.534;2023-02-26T15:44:07;4.80;99.90
53802;DHT22;39709;53.334;6.534;2023-02-26T15:46:40;4.70;99.90
53802;DHT22;39709;53.334;6.534;2023-02-26T15:49:08;4.80;99.90
53802;DHT22;39709;53.334;6.534;2023-02-26T15:51:37;4.70;99.90
53802;DHT22;39709;53.334;6.534;2023-02-26T15:54:03;4.90;99.90
53802;DHT22;39709;53.334;6.534;2023-02-26T15:56:35;4.70;99.90
53802;DHT22;39709;53.334;6.534;2023-02-26T15:59:26;4.70;99.90
53802;DHT22;39709;53.334;6.534;2023-02-26T16:01:53;4.40;99.90
53802;DHT22;39709;53.334;6.534;2023-02-26T16:04:20;4.40;99.90
53802;DHT22;39709;53.334;6.534;2023-02-26T16:06:55;4.30;99.90
53802;DHT22;39709;53.334;6.534;2023-02-26T16:09:26;4.30;99.90
53802;DHT22;39709;53.334;6.534;2023-02-26T16:11:56;4.30;99.90
53802;DHT22;39709;53.334;6.534;2023-02-26T16:14:26;4.40;99.90
53802;DHT22;39709;53.334;6.534;2023-02-26T16:16:55;4.50;99.90
53802;DHT22;39709;53.334;6.534;2023-02-26T16:19:38;4.50;99.90
53802;DHT22;39709;53.334;6.534;2023-02-26T16:24:54;4.40;99.90
53802;DHT22;39709;53.334;6.534;2023-02-26T16:27:26;4.30;99.90
53802;DHT22;39709;53.334;6.534;2023-02-26T16:29:55;4.40;99.90
53802;DHT22;39709;53.334;6.534;2023-02-26T16:32:23;4.20;99.90
53802;DHT22;39709;53.334;6.534;2023-02-26T16:34:53;4.20;99.90
53802;DHT22;39709;53.334;6.534;2023-02-26T16:40:17;4.20;99.90
53802;DHT22;39709;53.334;6.534;2023-02-26T16:48:02;4.10;99.90
53802;DHT22;39709;53.334;6.534;2023-02-26T16:50:33;4.00;99.90
53802;DHT22;39709;53.334;6.534;2023-02-26T16:53:06;3.90;99.90
53802;DHT22;39709;53.334;6.534;2023-02-26T16:55:34;3.80;99.90
53802;DHT22;39709;53.334;6.534;2023-02-26T16:58:03;3.80;99.90
53802;DHT22;39709;53.334;6.534;2023-02-26T17:00:31;3.80;99.90
53802;DHT22;39709;53.334;6.534;2023-02-26T17:03:13;3.80;99.90
53802;DHT22;39709;53.334;6.534;2023-02-26T17:06:01;3.70;99.90
53802;DHT22;39709;53.334;6.534;2023-02-26T17:08:34;3.70;99.90
53802;DHT22;39709;53.334;6.534;2023-02-26T17:11:07;3.70;99.90
53802;DHT22;39709;53.334;6.534;2023-02-26T17:13:33;3.80;99.90
53802;DHT22;39709;53.334;6.534;2023-02-26T17:16:10;3.80;99.90
53802;DHT22;39709;53.334;6.534;2023-02-26T17:18:36;3.70;99.90
53802;DHT22;39709;53.334;6.534;2023-02-26T17:21:02;3.90;99.90
53802;DHT22;39709;53.334;6.534;2023-02-26T17:23:34;3.70;99.90
53802;DHT22;39709;53.334;6.534;2023-02-26T17:26:02;3.70;99.90
53802;DHT22;39709;53.334;6.534;2023-02-26T17:28:34;3.70;99.90
53802;DHT22;39709;53.334;6.534;2023-02-26T17:31:01;3.50;99.90
53802;DHT22;39709;53.334;6.534;2023-02-26T17:33:27;3.70;99.90
53802;DHT22;39709;53.334;6.534;2023-02-26T17:35:57;3.70;99.90
53802;DHT22;39709;53.334;6.534;2023-02-26T17:38:23;3.70;99.90
53802;DHT22;39709;53.334;6.534;2023-02-26T17:40:49;3.60;99.90
53802;DHT22;39709;53.334;6.534;2023-02-26T17:43:19;3.60;99.90
53802;DHT22;39709;53.334;6.534;2023-02-26T17:45:44;3.70;99.90
53802;DHT22;39709;53.334;6.534;2023-02-26T17:48:12;3.50;99.90
53802;DHT22;39709;53.334;6.534;2023-02-26T17:50:53;3.50;99.90
53802;DHT22;39709;53.334;6.534;2023-02-26T17:53:20;3.40;99.90
53802;DHT22;39709;53.334;6.534;2023-02-26T17:55:49;3.30;99.90
53802;DHT22;39709;53.334;6.534;2023-02-26T17:58:25;3.30;99.90
53802;DHT22;39709;53.334;6.534;2023-02-26T18:00:51;3.30;99.90
53802;DHT22;39709;53.334;6.534;2023-02-26T18:03:18;3.30;99.90
53802;DHT22;39709;53.334;6.534;2023-02-26T18:05:45;3.30;99.90
53802;DHT22;39709;53.334;6.534;2023-02-26T18:08:21;3.30;99.90
53802;DHT22;39709;53.334;6.534;2023-02-26T18:10:47;3.20;99.90
53802;DHT22;39709;53.334;6.534;2023-02-26T18:13:13;3.20;99.90
53802;DHT22;39709;53.334;6.534;2023-02-26T18:15:39;3.00;99.90
53802;DHT22;39709;53.334;6.534;2023-02-26T18:18:05;3.00;99.90
53802;DHT22;39709;53.334;6.534;2023-02-26T18:20:33;3.00;99.90
53802;DHT22;39709;53.334;6.534;2023-02-26T18:22:59;2.90;99.90
53802;DHT22;39709;53.334;6.534;2023-02-26T18:25:25;2.90;99.90
53802;DHT22;39709;53.334;6.534;2023-02-26T18:27:54;2.70;99.90
53802;DHT22;39709;53.334;6.534;2023-02-26T18:30:30;2.70;99.90
53802;DHT22;39709;53.334;6.534;2023-02-26T18:32:56;2.80;99.90
53802;DHT22;39709;53.334;6.534;2023-02-26T18:35:26;2.80;99.90
53802;DHT22;39709;53.334;6.534;2023-02-26T18:37:54;2.70;99.90
53802;DHT22;39709;53.334;6.534;2023-02-26T18:40:22;2.50;99.90
53802;DHT22;39709;53.334;6.534;2023-02-26T18:42:49;2.50;99.90
53802;DHT22;39709;53.334;6.534;2023-02-26T18:45:15;2.40;99.90
53802;DHT22;39709;53.334;6.534;2023-02-26T18:47:41;2.30;99.90
53802;DHT22;39709;53.334;6.534;2023-02-26T18:50:10;2.20;99.90
53802;DHT22;39709;53.334;6.534;2023-02-26T18:52:36;2.20;99.90
53802;DHT22;39709;53.334;6.534;2023-02-26T18:55:02;2.20;99.90
53802;DHT22;39709;53.334;6.534;2023-02-26T18:57:28;2.30;99.90
53802;DHT22;39709;53.334;6.534;2023-02-26T18:59:55;2.30;99.90
53802;DHT22;39709;53.334;6.534;2023-02-26T19:02:20;2.20;99.90
53802;DHT22;39709;53.334;6.534;2023-02-26T19:04:46;2.40;99.90
53802;DHT22;39709;53.334;6.534;2023-02-26T19:07:12;2.40;99.90
53802;DHT22;39709;53.334;6.534;2023-02-26T19:09:38;2.10;99.90
53802;DHT22;39709;53.334;6.534;2023-02-26T19:12:05;2.20;99.90
53802;DHT22;39709;53.334;6.534;2023-02-26T19:14:31;2.30;99.90